sensor_id;sensor_type;location;lat;lon;timestamp;temperature;humidity
44579;DHT22;37422;51.402;0.016;2022-11-15T00:01:18;10.20;99.90
44579;DHT22;37422;51.402;0.016;2022-11-15T00:04:05;10.20;99.90
44579;DHT22;37422;51.402;0.016;2022-11-15T00:07:00;10.20;99.90
44579;DHT22;37422;51.402;0.016;2022-11-15T00:09:52;10.10;99.90
44579;DHT22;37422;51.402;0.016;2022-11-15T00:12:42;10.10;99.90
44579;DHT22;37422;51.402;0.016;2022-11-15T00:15:37;10.10;99.90
44579;DHT22;37422;51.402;0.016;2022-11-15T00:18:30;10.00;99.90
44579;DHT22;37422;51.402;0.016;2022-11-15T00:21:18;10.00;99.90
44579;DHT22;37422;51.402;0.016;2022-11-15T00:24:05;9.90;99.90
44579;DHT22;37422;51.402;0.016;2022-11-15T00:27:04;9.90;99.90
44579;DHT22;37422;51.402;0.016;2022-11-15T00:29:53;9.90;99.90
44579;DHT22;37422;51.402;0.016;2022-11-15T00:32:41;9.80;99.90
44579;DHT22;37422;51.402;0.016;2022-11-15T00:35:27;9.80;99.90
44579;DHT22;37422;51.402;0.016;2022-11-15T00:38:17;9.70;99.90
44579;DHT22;37422;51.402;0.016;2022-11-15T00:41:05;9.70;99.90
44579;DHT22;37422;51.402;0.016;2022-11-15T00:43:58;9.70;99.90
44579;DHT22;37422;51.402;0.016;2022-11-15T00:46:45;9.70;99.90
44579;DHT22;37422;51.402;0.016;2022-11-15T00:49:45;9.60;99.90
44579;DHT22;37422;51.402;0.016;2022-11-15T00:52:35;9.60;99.90
44579;DHT22;37422;51.402;0.016;2022-11-15T00:55:22;9.70;99.90
44579;DHT22;37422;51.402;0.016;2022-11-15T00:58:08;9.70;99.90
44579;DHT22;37422;51.402;0.016;2022-11-15T01:00:55;9.70;99.90
44579;DHT22;37422;51.402;0.016;2022-11-15T01:03:44;9.70;99.90
44579;DHT22;37422;51.402;0.016;2022-11-15T01:06:34;9.70;99.90
44579;DHT22;37422;51.402;0.016;2022-11-15T01:09:21;9.70;99.90
44579;DHT22;37422;51.402;0.016;2022-11-15T01:12:07;9.70;99.90
44579;DHT22;37422;51.402;0.016;2022-11-15T01:15:01;9.70;99.90
44579;DHT22;37422;51.402;0.016;2022-11-15T01:17:50;9.70;99.90
44579;DHT22;37422;51.402;0.016;2022-11-15T01:20:44;9.70;99.90
44579;DHT22;37422;51.402;0.016;2022-11-15T01:23:39;9.70;99.90
44579;DHT22;37422;51.402;0.016;2022-11-15T01:26:30;9.70;99.90
44579;DHT22;37422;51.402;0.016;2022-11-15T01:29:20;9.70;99.90
44579;DHT22;37422;51.402;0.016;2022-11-15T01:32:11;9.70;99.90
44579;DHT22;37422;51.402;0.016;2022-11-15T01:34:57;9.70;99.90
44579;DHT22;37422;51.402;0.016;2022-11-15T01:37:43;9.70;99.90
44579;DHT22;37422;51.402;0.016;2022-11-15T01:40:35;9.70;99.90
44579;DHT22;37422;51.402;0.016;2022-11-15T01:43:24;9.70;99.90
44579;DHT22;37422;51.402;0.016;2022-11-15T01:46:35;9.80;99.90
44579;DHT22;37422;51.402;0.016;2022-11-15T01:49:24;9.80;99.90
44579;DHT22;37422;51.402;0.016;2022-11-15T01:52:17;9.80;99.90
44579;DHT22;37422;51.402;0.016;2022-11-15T01:55:11;9.80;99.90
44579;DHT22;37422;51.402;0.016;2022-11-15T01:58:01;9.80;99.90
44579;DHT22;37422;51.402;0.016;2022-11-15T02:00:50;9.80;99.90
44579;DHT22;37422;51.402;0.016;2022-11-15T02:06:34;9.80;99.90
44579;DHT22;37422;51.402;0.016;2022-11-15T02:09:22;9.80;99.90
44579;DHT22;37422;51.402;0.016;2022-11-15T02:12:09;9.80;99.90
44579;DHT22;37422;51.402;0.016;2022-11-15T02:14:59;9.80;99.90
44579;DHT22;37422;51.402;0.016;2022-11-15T02:36:18;9.90;99.90
44579;DHT22;37422;51.402;0.016;2022-11-15T02:42:29;9.90;99.90
44579;DHT22;37422;51.402;0.016;2022-11-15T02:45:45;9.90;99.90
44579;DHT22;37422;51.402;0.016;2022-11-15T02:48:36;9.90;99.90
44579;DHT22;37422;51.402;0.016;2022-11-15T02:51:23;10.00;99.90
44579;DHT22;37422;51.402;0.016;2022-11-15T02:54:17;9.90;99.90
44579;DHT22;37422;51.402;0.016;2022-11-15T02:57:11;10.00;99.90
44579;DHT22;37422;51.402;0.016;2022-11-15T03:00:14;10.00;99.90
44579;DHT22;37422;51.402;0.016;2022-11-15T03:06:45;9.90;99.90
44579;DHT22;37422;51.402;0.016;2022-11-15T03:09:46;10.00;99.90
44579;DHT22;37422;51.402;0.016;2022-11-15T03:12:38;10.00;99.90
44579;DHT22;37422;51.402;0.016;2022-11-15T03:15:28;10.10;99.90
44579;DHT22;37422;51.402;0.016;2022-11-15T03:18:35;10.10;99.90
44579;DHT22;37422;51.402;0.016;2022-11-15T03:21:50;10.10;99.90
44579;DHT22;37422;51.402;0.016;2022-11-15T03:24:37;10.10;99.90
44579;DHT22;37422;51.402;0.016;2022-11-15T03:27:27;10.20;99.90
44579;DHT22;37422;51.402;0.016;2022-11-15T03:30:14;10.20;99.90
44579;DHT22;37422;51.402;0.016;2022-11-15T03:33:02;10.30;99.90
44579;DHT22;37422;51.402;0.016;2022-11-15T03:35:51;10.30;99.90
44579;DHT22;37422;51.402;0.016;2022-11-15T03:38:38;10.40;99.90
44579;DHT22;37422;51.402;0.016;2022-11-15T03:41:35;10.40;99.90
44579;DHT22;37422;51.402;0.016;2022-11-15T03:44:31;10.40;99.90
44579;DHT22;37422;51.402;0.016;2022-11-15T03:50:18;10.50;99.90
44579;DHT22;37422;51.402;0.016;2022-11-15T03:53:05;10.50;99.90
44579;DHT22;37422;51.402;0.016;2022-11-15T03:55:52;10.50;99.90
44579;DHT22;37422;51.402;0.016;2022-11-15T03:58:38;10.50;99.90
44579;DHT22;37422;51.402;0.016;2022-11-15T04:01:25;10.50;99.90
44579;DHT22;37422;51.402;0.016;2022-11-15T04:04:11;10.50;99.90
44579;DHT22;37422;51.402;0.016;2022-11-15T04:06:57;10.50;99.90
44579;DHT22;37422;51.402;0.016;2022-11-15T04:09:44;10.50;99.90
44579;DHT22;37422;51.402;0.016;2022-11-15T04:12:48;10.50;99.90
44579;DHT22;37422;51.402;0.016;2022-11-15T04:15:35;10.50;99.90
44579;DHT22;37422;51.402;0.016;2022-11-15T04:18:21;10.50;99.90
44579;DHT22;37422;51.402;0.016;2022-11-15T04:21:08;10.50;99.90
44579;DHT22;37422;51.402;0.016;2022-11-15T04:24:13;10.50;99.90
44579;DHT22;37422;51.402;0.016;2022-11-15T04:26:59;10.50;99.90
44579;DHT22;37422;51.402;0.016;2022-11-15T04:29:46;10.60;99.90
44579;DHT22;37422;51.402;0.016;2022-11-15T04:32:32;10.60;99.90
44579;DHT22;37422;51.402;0.016;2022-11-15T04:35:18;10.70;99.90
44579;DHT22;37422;51.402;0.016;2022-11-15T04:38:07;10.70;99.90
44579;DHT22;37422;51.402;0.016;2022-11-15T04:40:53;10.80;99.90
44579;DHT22;37422;51.402;0.016;2022-11-15T04:43:39;10.90;99.90
44579;DHT22;37422;51.402;0.016;2022-11-15T04:46:26;11.00;99.90
44579;DHT22;37422;51.402;0.016;2022-11-15T04:49:12;11.00;99.90
44579;DHT22;37422;51.402;0.016;2022-11-15T04:51:59;11.10;99.90
44579;DHT22;37422;51.402;0.016;2022-11-15T04:54:45;11.10;99.90
44579;DHT22;37422;51.402;0.016;2022-11-15T04:57:31;11.20;99.90
44579;DHT22;37422;51.402;0.016;2022-11-15T05:00:17;11.30;99.90
44579;DHT22;37422;51.402;0.016;2022-11-15T05:03:04;11.30;99.90
44579;DHT22;37422;51.402;0.016;2022-11-15T05:06:08;11.30;99.90
44579;DHT22;37422;51.402;0.016;2022-11-15T05:08:55;11.40;99.90
44579;DHT22;37422;51.402;0.016;2022-11-15T05:11:42;11.50;99.90
44579;DHT22;37422;51.402;0.016;2022-11-15T05:14:28;11.50;99.90
44579;DHT22;37422;51.402;0.016;2022-11-15T05:17:15;11.60;99.90
44579;DHT22;37422;51.402;0.016;2022-11-15T05:20:01;11.70;99.90
44579;DHT22;37422;51.402;0.016;2022-11-15T05:22:50;11.70;99.90
44579;DHT22;37422;51.402;0.016;2022-11-15T05:25:37;11.70;99.90
44579;DHT22;37422;51.402;0.016;2022-11-15T05:28:23;11.80;99.90
44579;DHT22;37422;51.402;0.016;2022-11-15T05:31:15;11.90;99.90
44579;DHT22;37422;51.402;0.016;2022-11-15T05:34:04;11.90;99.90
44579;DHT22;37422;51.402;0.016;2022-11-15T05:36:53;11.90;99.90
44579;DHT22;37422;51.402;0.016;2022-11-15T05:39:40;12.00;99.90
44579;DHT22;37422;51.402;0.016;2022-11-15T05:42:27;12.00;99.90
44579;DHT22;37422;51.402;0.016;2022-11-15T05:45:14;12.00;99.90
44579;DHT22;37422;51.402;0.016;2022-11-15T05:48:01;12.10;99.90
44579;DHT22;37422;51.402;0.016;2022-11-15T05:50:51;12.10;99.90
44579;DHT22;37422;51.402;0.016;2022-11-15T05:53:38;12.10;99.90
44579;DHT22;37422;51.402;0.016;2022-11-15T05:56:25;12.10;99.90
44579;DHT22;37422;51.402;0.016;2022-11-15T05:59:11;12.20;99.90
44579;DHT22;37422;51.402;0.016;2022-11-15T06:01:57;12.20;99.90
44579;DHT22;37422;51.402;0.016;2022-11-15T06:04:44;12.20;99.90
44579;DHT22;37422;51.402;0.016;2022-11-15T06:07:30;12.20;99.90
44579;DHT22;37422;51.402;0.016;2022-11-15T06:10:17;12.20;99.90
44579;DHT22;37422;51.402;0.016;2022-11-15T06:13:04;12.20;99.90
44579;DHT22;37422;51.402;0.016;2022-11-15T06:15:50;12.20;99.90
44579;DHT22;37422;51.402;0.016;2022-11-15T06:18:37;12.20;99.90
44579;DHT22;37422;51.402;0.016;2022-11-15T06:21:24;12.20;99.90
44579;DHT22;37422;51.402;0.016;2022-11-15T06:24:11;12.30;99.90
44579;DHT22;37422;51.402;0.016;2022-11-15T06:26:57;12.30;99.90
44579;DHT22;37422;51.402;0.016;2022-11-15T06:29:43;12.30;99.90
44579;DHT22;37422;51.402;0.016;2022-11-15T06:32:30;12.30;99.90
44579;DHT22;37422;51.402;0.016;2022-11-15T06:35:17;12.30;99.90
44579;DHT22;37422;51.402;0.016;2022-11-15T06:38:05;12.30;99.90
44579;DHT22;37422;51.402;0.016;2022-11-15T06:40:52;12.30;99.90
44579;DHT22;37422;51.402;0.016;2022-11-15T06:43:38;12.30;99.90
44579;DHT22;37422;51.402;0.016;2022-11-15T06:46:24;12.30;99.90
44579;DHT22;37422;51.402;0.016;2022-11-15T06:49:11;12.30;99.90
44579;DHT22;37422;51.402;0.016;2022-11-15T06:51:57;12.30;99.90
44579;DHT22;37422;51.402;0.016;2022-11-15T06:54:43;12.20;99.90
44579;DHT22;37422;51.402;0.016;2022-11-15T06:57:30;12.20;99.90
44579;DHT22;37422;51.402;0.016;2022-11-15T07:00:17;12.10;99.90
44579;DHT22;37422;51.402;0.016;2022-11-15T07:03:04;12.10;99.90
44579;DHT22;37422;51.402;0.016;2022-11-15T07:05:54;12.00;99.90
44579;DHT22;37422;51.402;0.016;2022-11-15T07:08:41;11.90;99.90
44579;DHT22;37422;51.402;0.016;2022-11-15T07:11:28;11.90;99.90
44579;DHT22;37422;51.402;0.016;2022-11-15T07:14:14;11.90;99.90
44579;DHT22;37422;51.402;0.016;2022-11-15T07:17:01;11.90;99.90
44579;DHT22;37422;51.402;0.016;2022-11-15T07:19:49;11.90;99.90
44579;DHT22;37422;51.402;0.016;2022-11-15T07:22:35;11.90;99.90
44579;DHT22;37422;51.402;0.016;2022-11-15T07:25:21;11.90;99.90
44579;DHT22;37422;51.402;0.016;2022-11-15T07:28:07;11.90;99.90
44579;DHT22;37422;51.402;0.016;2022-11-15T07:30:54;11.80;99.90
44579;DHT22;37422;51.402;0.016;2022-11-15T07:33:40;11.80;99.90
44579;DHT22;37422;51.402;0.016;2022-11-15T07:36:26;11.80;99.90
44579;DHT22;37422;51.402;0.016;2022-11-15T07:39:12;11.70;99.90
44579;DHT22;37422;51.402;0.016;2022-11-15T07:42:03;11.60;99.90
44579;DHT22;37422;51.402;0.016;2022-11-15T07:45:08;11.60;99.90
44579;DHT22;37422;51.402;0.016;2022-11-15T07:47:55;11.50;99.90
44579;DHT22;37422;51.402;0.016;2022-11-15T07:50:42;11.40;99.90
44579;DHT22;37422;51.402;0.016;2022-11-15T07:53:29;11.40;99.90
44579;DHT22;37422;51.402;0.016;2022-11-15T07:56:15;11.30;99.90
44579;DHT22;37422;51.402;0.016;2022-11-15T07:59:02;11.30;99.90
44579;DHT22;37422;51.402;0.016;2022-11-15T08:01:48;11.30;99.90
44579;DHT22;37422;51.402;0.016;2022-11-15T08:04:35;11.20;99.90
44579;DHT22;37422;51.402;0.016;2022-11-15T08:07:21;11.20;99.90
44579;DHT22;37422;51.402;0.016;2022-11-15T08:10:07;11.20;99.90
44579;DHT22;37422;51.402;0.016;2022-11-15T08:13:01;11.20;99.90
44579;DHT22;37422;51.402;0.016;2022-11-15T08:15:48;11.20;99.90
44579;DHT22;37422;51.402;0.016;2022-11-15T08:18:42;11.20;99.90
44579;DHT22;37422;51.402;0.016;2022-11-15T08:21:28;11.20;99.90
44579;DHT22;37422;51.402;0.016;2022-11-15T08:24:14;11.20;99.90
44579;DHT22;37422;51.402;0.016;2022-11-15T08:27:00;11.20;99.90
44579;DHT22;37422;51.402;0.016;2022-11-15T08:29:48;11.20;99.90
44579;DHT22;37422;51.402;0.016;2022-11-15T08:32:35;11.20;99.90
44579;DHT22;37422;51.402;0.016;2022-11-15T08:35:21;11.20;99.90
44579;DHT22;37422;51.402;0.016;2022-11-15T08:38:13;11.20;99.90
44579;DHT22;37422;51.402;0.016;2022-11-15T08:41:04;11.20;99.90
44579;DHT22;37422;51.402;0.016;2022-11-15T08:43:52;11.30;99.90
44579;DHT22;37422;51.402;0.016;2022-11-15T08:46:38;11.30;99.90
44579;DHT22;37422;51.402;0.016;2022-11-15T08:49:24;11.30;99.90
44579;DHT22;37422;51.402;0.016;2022-11-15T08:52:10;11.30;99.90
44579;DHT22;37422;51.402;0.016;2022-11-15T08:54:56;11.30;99.90
44579;DHT22;37422;51.402;0.016;2022-11-15T08:57:43;11.40;99.90
44579;DHT22;37422;51.402;0.016;2022-11-15T09:00:29;11.40;99.90
44579;DHT22;37422;51.402;0.016;2022-11-15T09:03:15;11.40;99.90
44579;DHT22;37422;51.402;0.016;2022-11-15T09:06:02;11.50;99.90
44579;DHT22;37422;51.402;0.016;2022-11-15T09:08:48;11.50;99.90
44579;DHT22;37422;51.402;0.016;2022-11-15T09:11:34;11.50;99.90
44579;DHT22;37422;51.402;0.016;2022-11-15T09:14:20;11.50;99.90
44579;DHT22;37422;51.402;0.016;2022-11-15T09:17:09;11.60;99.90
44579;DHT22;37422;51.402;0.016;2022-11-15T09:19:56;11.60;99.90
44579;DHT22;37422;51.402;0.016;2022-11-15T09:22:42;11.60;99.90
44579;DHT22;37422;51.402;0.016;2022-11-15T09:25:29;11.60;99.90
44579;DHT22;37422;51.402;0.016;2022-11-15T09:28:16;11.60;99.90
44579;DHT22;37422;51.402;0.016;2022-11-15T09:31:04;11.60;99.90
44579;DHT22;37422;51.402;0.016;2022-11-15T09:33:52;11.60;99.90
44579;DHT22;37422;51.402;0.016;2022-11-15T09:36:38;11.60;99.90
44579;DHT22;37422;51.402;0.016;2022-11-15T09:39:24;11.70;99.90
44579;DHT22;37422;51.402;0.016;2022-11-15T09:42:29;11.70;99.90
44579;DHT22;37422;51.402;0.016;2022-11-15T09:48:51;11.70;99.90
44579;DHT22;37422;51.402;0.016;2022-11-15T09:51:39;11.70;99.90
44579;DHT22;37422;51.402;0.016;2022-11-15T09:54:34;11.70;99.90
44579;DHT22;37422;51.402;0.016;2022-11-15T10:00:19;11.80;99.90
44579;DHT22;37422;51.402;0.016;2022-11-15T10:06:02;11.80;99.90
44579;DHT22;37422;51.402;0.016;2022-11-15T10:08:46;11.90;99.90
44579;DHT22;37422;51.402;0.016;2022-11-15T10:11:31;11.90;99.90
44579;DHT22;37422;51.402;0.016;2022-11-15T10:14:19;11.90;99.90
44579;DHT22;37422;51.402;0.016;2022-11-15T10:17:06;11.90;99.90
44579;DHT22;37422;51.402;0.016;2022-11-15T10:22:48;11.90;99.90
44579;DHT22;37422;51.402;0.016;2022-11-15T10:25:34;12.00;99.90
44579;DHT22;37422;51.402;0.016;2022-11-15T10:28:17;12.00;99.90
44579;DHT22;37422;51.402;0.016;2022-11-15T10:30:56;12.00;99.90
44579;DHT22;37422;51.402;0.016;2022-11-15T10:33:38;12.00;99.90
44579;DHT22;37422;51.402;0.016;2022-11-15T10:41:29;12.10;99.90
44579;DHT22;37422;51.402;0.016;2022-11-15T10:46:35;12.10;99.90
44579;DHT22;37422;51.402;0.016;2022-11-15T10:49:20;12.10;99.90
44579;DHT22;37422;51.402;0.016;2022-11-15T10:51:49;12.10;99.90
44579;DHT22;37422;51.402;0.016;2022-11-15T10:54:25;12.10;99.90
44579;DHT22;37422;51.402;0.016;2022-11-15T10:56:57;12.10;99.90
44579;DHT22;37422;51.402;0.016;2022-11-15T10:59:31;12.20;99.90
44579;DHT22;37422;51.402;0.016;2022-11-15T11:02:28;12.30;99.90
44579;DHT22;37422;51.402;0.016;2022-11-15T11:04:57;12.30;99.90
44579;DHT22;37422;51.402;0.016;2022-11-15T11:07:31;12.30;99.90
44579;DHT22;37422;51.402;0.016;2022-11-15T11:10:16;12.30;99.90
44579;DHT22;37422;51.402;0.016;2022-11-15T11:13:15;12.30;99.90
44579;DHT22;37422;51.402;0.016;2022-11-15T11:16:41;12.30;99.90
44579;DHT22;37422;51.402;0.016;2022-11-15T11:27:18;12.30;99.90
44579;DHT22;37422;51.402;0.016;2022-11-15T11:29:56;12.30;99.90
44579;DHT22;37422;51.402;0.016;2022-11-15T11:41:38;12.20;99.90
44579;DHT22;37422;51.402;0.016;2022-11-15T11:44:30;12.20;99.90
44579;DHT22;37422;51.402;0.016;2022-11-15T11:47:24;12.20;99.90
44579;DHT22;37422;51.402;0.016;2022-11-15T11:49:59;12.20;99.90
44579;DHT22;37422;51.402;0.016;2022-11-15T11:58:37;12.20;99.90
44579;DHT22;37422;51.402;0.016;2022-11-15T12:01:16;12.30;99.90
44579;DHT22;37422;51.402;0.016;2022-11-15T12:03:46;12.20;99.90
44579;DHT22;37422;51.402;0.016;2022-11-15T12:06:36;12.20;99.90
44579;DHT22;37422;51.402;0.016;2022-11-15T12:09:40;12.30;99.90
44579;DHT22;37422;51.402;0.016;2022-11-15T12:17:44;12.30;99.90
44579;DHT22;37422;51.402;0.016;2022-11-15T12:20:17;12.20;99.90
44579;DHT22;37422;51.402;0.016;2022-11-15T12:23:10;12.30;99.90
44579;DHT22;37422;51.402;0.016;2022-11-15T12:25:57;12.30;99.90
44579;DHT22;37422;51.402;0.016;2022-11-15T12:31:10;12.30;99.90
44579;DHT22;37422;51.402;0.016;2022-11-15T12:33:49;12.30;99.90
44579;DHT22;37422;51.402;0.016;2022-11-15T12:36:51;12.40;99.90
44579;DHT22;37422;51.402;0.016;2022-11-15T12:39:18;12.40;99.90
44579;DHT22;37422;51.402;0.016;2022-11-15T12:47:23;12.40;99.90
44579;DHT22;37422;51.402;0.016;2022-11-15T12:49:52;12.40;99.90
44579;DHT22;37422;51.402;0.016;2022-11-15T12:52:20;12.40;99.90
44579;DHT22;37422;51.402;0.016;2022-11-15T12:55:29;12.50;99.90
44579;DHT22;37422;51.402;0.016;2022-11-15T12:58:26;12.50;99.90
44579;DHT22;37422;51.402;0.016;2022-11-15T13:00:54;12.50;99.90
44579;DHT22;37422;51.402;0.016;2022-11-15T13:03:23;12.60;99.90
44579;DHT22;37422;51.402;0.016;2022-11-15T13:05:57;12.60;99.90
44579;DHT22;37422;51.402;0.016;2022-11-15T13:08:39;12.60;99.90
44579;DHT22;37422;51.402;0.016;2022-11-15T13:11:43;12.60;99.90
44579;DHT22;37422;51.402;0.016;2022-11-15T13:22:41;12.70;99.90
44579;DHT22;37422;51.402;0.016;2022-11-15T13:33:22;12.90;99.90
44579;DHT22;37422;51.402;0.016;2022-11-15T13:35:54;13.00;99.90
44579;DHT22;37422;51.402;0.016;2022-11-15T13:38:37;13.10;99.90
44579;DHT22;37422;51.402;0.016;2022-11-15T13:41:21;13.10;99.90
44579;DHT22;37422;51.402;0.016;2022-11-15T13:43:51;13.20;99.90
44579;DHT22;37422;51.402;0.016;2022-11-15T13:46:32;13.40;99.90
44579;DHT22;37422;51.402;0.016;2022-11-15T13:49:08;13.50;99.90
44579;DHT22;37422;51.402;0.016;2022-11-15T13:51:49;13.50;99.90
44579;DHT22;37422;51.402;0.016;2022-11-15T13:56:53;13.60;99.90
44579;DHT22;37422;51.402;0.016;2022-11-15T13:59:36;13.60;99.90
44579;DHT22;37422;51.402;0.016;2022-11-15T14:02:19;13.60;99.90
44579;DHT22;37422;51.402;0.016;2022-11-15T14:04:50;13.60;99.90
44579;DHT22;37422;51.402;0.016;2022-11-15T14:07:21;13.50;99.90
44579;DHT22;37422;51.402;0.016;2022-11-15T14:09:50;13.50;99.90
44579;DHT22;37422;51.402;0.016;2022-11-15T14:14:53;13.40;99.90
44579;DHT22;37422;51.402;0.016;2022-11-15T14:17:34;13.30;99.90
44579;DHT22;37422;51.402;0.016;2022-11-15T14:20:28;13.20;99.90
44579;DHT22;37422;51.402;0.016;2022-11-15T14:23:25;13.20;99.90
44579;DHT22;37422;51.402;0.016;2022-11-15T14:25:59;13.20;99.90
44579;DHT22;37422;51.402;0.016;2022-11-15T14:28:33;13.10;99.90
44579;DHT22;37422;51.402;0.016;2022-11-15T14:31:11;13.10;99.90
44579;DHT22;37422;51.402;0.016;2022-11-15T14:33:41;13.10;99.90
44579;DHT22;37422;51.402;0.016;2022-11-15T14:36:15;13.10;99.90
44579;DHT22;37422;51.402;0.016;2022-11-15T14:38:43;13.20;99.90
44579;DHT22;37422;51.402;0.016;2022-11-15T14:41:19;13.20;99.90
44579;DHT22;37422;51.402;0.016;2022-11-15T14:43:58;13.20;99.90
44579;DHT22;37422;51.402;0.016;2022-11-15T14:46:34;13.20;99.90
44579;DHT22;37422;51.402;0.016;2022-11-15T14:49:02;13.20;99.90
44579;DHT22;37422;51.402;0.016;2022-11-15T14:51:30;13.20;99.90
44579;DHT22;37422;51.402;0.016;2022-11-15T14:54:00;13.10;99.90
44579;DHT22;37422;51.402;0.016;2022-11-15T14:56:28;13.10;99.90
44579;DHT22;37422;51.402;0.016;2022-11-15T14:58:56;13.00;99.90
44579;DHT22;37422;51.402;0.016;2022-11-15T15:01:26;12.90;99.90
44579;DHT22;37422;51.402;0.016;2022-11-15T15:03:54;12.90;99.90
44579;DHT22;37422;51.402;0.016;2022-11-15T15:06:26;12.80;99.90
44579;DHT22;37422;51.402;0.016;2022-11-15T15:08:54;12.80;99.90
44579;DHT22;37422;51.402;0.016;2022-11-15T15:11:30;12.70;99.90
44579;DHT22;37422;51.402;0.016;2022-11-15T15:13:58;12.70;99.90
44579;DHT22;37422;51.402;0.016;2022-11-15T15:16:29;12.70;99.90
44579;DHT22;37422;51.402;0.016;2022-11-15T15:18:59;12.70;99.90
44579;DHT22;37422;51.402;0.016;2022-11-15T15:21:28;12.60;99.90
44579;DHT22;37422;51.402;0.016;2022-11-15T15:24:03;12.60;99.90
44579;DHT22;37422;51.402;0.016;2022-11-15T15:26:31;12.50;99.90
44579;DHT22;37422;51.402;0.016;2022-11-15T15:29:04;12.50;99.90
44579;DHT22;37422;51.402;0.016;2022-11-15T15:31:33;12.40;99.90
44579;DHT22;37422;51.402;0.016;2022-11-15T15:34:01;12.40;99.90
44579;DHT22;37422;51.402;0.016;2022-11-15T15:36:33;12.30;99.90
44579;DHT22;37422;51.402;0.016;2022-11-15T15:39:01;12.30;99.90
44579;DHT22;37422;51.402;0.016;2022-11-15T15:41:33;12.20;99.90
44579;DHT22;37422;51.402;0.016;2022-11-15T15:44:01;12.20;99.90
44579;DHT22;37422;51.402;0.016;2022-11-15T15:46:30;12.20;99.90
44579;DHT22;37422;51.402;0.016;2022-11-15T15:48:58;12.10;99.90
44579;DHT22;37422;51.402;0.016;2022-11-15T15:51:35;12.00;99.90
44579;DHT22;37422;51.402;0.016;2022-11-15T15:54:04;12.00;99.90
44579;DHT22;37422;51.402;0.016;2022-11-15T15:56:35;12.00;99.90
44579;DHT22;37422;51.402;0.016;2022-11-15T15:59:03;11.90;99.90
44579;DHT22;37422;51.402;0.016;2022-11-15T16:01:30;11.90;99.90
44579;DHT22;37422;51.402;0.016;2022-11-15T16:03:58;11.90;99.90
44579;DHT22;37422;51.402;0.016;2022-11-15T16:06:34;11.90;99.90
44579;DHT22;37422;51.402;0.016;2022-11-15T16:09:03;11.90;99.90
44579;DHT22;37422;51.402;0.016;2022-11-15T16:11:47;11.90;99.90
44579;DHT22;37422;51.402;0.016;2022-11-15T16:14:15;11.80;99.90
44579;DHT22;37422;51.402;0.016;2022-11-15T16:16:54;11.90;99.90
44579;DHT22;37422;51.402;0.016;2022-11-15T16:19:22;11.90;99.90
44579;DHT22;37422;51.402;0.016;2022-11-15T16:21:50;11.90;99.90
44579;DHT22;37422;51.402;0.016;2022-11-15T16:24:19;11.90;99.90
44579;DHT22;37422;51.402;0.016;2022-11-15T16:26:47;11.90;99.90
44579;DHT22;37422;51.402;0.016;2022-11-15T16:29:15;11.90;99.90
44579;DHT22;37422;51.402;0.016;2022-11-15T16:31:46;11.90;99.90
44579;DHT22;37422;51.402;0.016;2022-11-15T16:34:14;11.90;99.90
44579;DHT22;37422;51.402;0.016;2022-11-15T16:36:42;11.90;99.90
44579;DHT22;37422;51.402;0.016;2022-11-15T16:39:13;11.80;99.90
44579;DHT22;37422;51.402;0.016;2022-11-15T16:41:41;11.80;99.90
44579;DHT22;37422;51.402;0.016;2022-11-15T16:44:17;11.70;99.90
44579;DHT22;37422;51.402;0.016;2022-11-15T16:46:45;11.70;99.90
44579;DHT22;37422;51.402;0.016;2022-11-15T16:49:21;11.60;99.90
44579;DHT22;37422;51.402;0.016;2022-11-15T16:51:50;11.60;99.90
44579;DHT22;37422;51.402;0.016;2022-11-15T16:55:00;11.50;99.90
44579;DHT22;37422;51.402;0.016;2022-11-15T16:57:56;11.50;99.90
44579;DHT22;37422;51.402;0.016;2022-11-15T17:00:28;11.80;99.90
44579;DHT22;37422;51.402;0.016;2022-11-15T17:02:56;11.40;99.90
44579;DHT22;37422;51.402;0.016;2022-11-15T17:05:30;11.40;99.90
44579;DHT22;37422;51.402;0.016;2022-11-15T17:10:57;11.30;99.90
44579;DHT22;37422;51.402;0.016;2022-11-15T17:13:25;11.20;99.90
44579;DHT22;37422;51.402;0.016;2022-11-15T17:16:06;11.20;99.90
44579;DHT22;37422;51.402;0.016;2022-11-15T17:18:34;11.10;99.90
44579;DHT22;37422;51.402;0.016;2022-11-15T17:21:07;11.10;99.90
44579;DHT22;37422;51.402;0.016;2022-11-15T17:24:03;11.10;99.90
44579;DHT22;37422;51.402;0.016;2022-11-15T17:26:32;11.00;99.90
44579;DHT22;37422;51.402;0.016;2022-11-15T17:29:07;11.00;99.90
44579;DHT22;37422;51.402;0.016;2022-11-15T17:31:35;11.10;99.90
44579;DHT22;37422;51.402;0.016;2022-11-15T17:34:05;11.10;99.90
44579;DHT22;37422;51.402;0.016;2022-11-15T17:36:33;11.10;99.90
44579;DHT22;37422;51.402;0.016;2022-11-15T17:39:02;11.10;99.90
44579;DHT22;37422;51.402;0.016;2022-11-15T17:41:34;11.10;99.90
44579;DHT22;37422;51.402;0.016;2022-11-15T17:44:08;11.10;99.90
44579;DHT22;37422;51.402;0.016;2022-11-15T17:46:53;11.00;99.90
44579;DHT22;37422;51.402;0.016;2022-11-15T17:49:21;11.00;99.90
44579;DHT22;37422;51.402;0.016;2022-11-15T17:51:48;11.00;99.90
44579;DHT22;37422;51.402;0.016;2022-11-15T17:54:16;10.90;99.90
44579;DHT22;37422;51.402;0.016;2022-11-15T17:56:48;11.00;99.90
44579;DHT22;37422;51.402;0.016;2022-11-15T17:59:35;11.00;99.90
44579;DHT22;37422;51.402;0.016;2022-11-15T18:02:03;11.00;99.90
44579;DHT22;37422;51.402;0.016;2022-11-15T18:04:32;11.00;99.90
44579;DHT22;37422;51.402;0.016;2022-11-15T18:07:00;10.90;99.90
44579;DHT22;37422;51.402;0.016;2022-11-15T18:09:28;10.90;99.90
44579;DHT22;37422;51.402;0.016;2022-11-15T18:11:55;10.90;99.90
44579;DHT22;37422;51.402;0.016;2022-11-15T18:14:25;10.90;99.90
44579;DHT22;37422;51.402;0.016;2022-11-15T18:16:52;10.90;99.90
44579;DHT22;37422;51.402;0.016;2022-11-15T18:19:24;10.90;99.90
44579;DHT22;37422;51.402;0.016;2022-11-15T18:21:51;10.80;99.90
44579;DHT22;37422;51.402;0.016;2022-11-15T18:24:35;10.80;99.90
44579;DHT22;37422;51.402;0.016;2022-11-15T18:27:05;10.70;99.90
44579;DHT22;37422;51.402;0.016;2022-11-15T18:29:33;10.70;99.90
44579;DHT22;37422;51.402;0.016;2022-11-15T18:32:05;10.70;99.90
44579;DHT22;37422;51.402;0.016;2022-11-15T18:34:38;10.60;99.90
44579;DHT22;37422;51.402;0.016;2022-11-15T18:37:06;10.60;99.90
44579;DHT22;37422;51.402;0.016;2022-11-15T18:39:34;10.50;99.90
44579;DHT22;37422;51.402;0.016;2022-11-15T18:42:01;10.50;99.90
44579;DHT22;37422;51.402;0.016;2022-11-15T18:44:29;10.40;99.90
44579;DHT22;37422;51.402;0.016;2022-11-15T18:46:59;10.40;99.90
44579;DHT22;37422;51.402;0.016;2022-11-15T18:49:27;10.30;99.90
44579;DHT22;37422;51.402;0.016;2022-11-15T18:51:58;10.20;99.90
44579;DHT22;37422;51.402;0.016;2022-11-15T18:54:46;10.20;99.90
44579;DHT22;37422;51.402;0.016;2022-11-15T18:57:17;10.10;99.90
44579;DHT22;37422;51.402;0.016;2022-11-15T18:59:45;10.00;99.90
44579;DHT22;37422;51.402;0.016;2022-11-15T19:02:20;10.00;99.90